Philadelphia, Pennsylvania
Current Conditions -  °F | °C
As of 8:54 PM on Thursday 20 Nov 2014 (Local Time) from KPHL Reporting Station
Scattered Clouds Scattered Clouds  
Wind Chill: 31°   Ceiling: Unl
Heat Index: 38°   Visibility: 10mi
Dew Point: 10°   Wind: 10mph
Humidity: 32%   Direction: 330°NNW
Pressure: 30.03"   Gusts: NA
Location:  39.95°N, 75.16°W
Report Text: KPHL 210154Z 33009KT 10SM SCT090 03/M12 A3003 RMK AO2 SLP168 T00331122
Loading
Personal Weather Stations






























Interactive Weather Map New forecast layout! Learn more

10-Day Weather Forecast

Advertisements
Track Severe Weather on mobile